createdAt,value
2019-02-19T00:04:53.159Z,13.65
2019-02-19T00:07:20.458Z,13.20
2019-02-19T00:09:47.780Z,12.60
2019-02-19T00:12:15.160Z,12.45
2019-02-19T00:14:42.462Z,11.55
2019-02-19T00:17:10.029Z,11.40
2019-02-19T00:19:37.346Z,12.10
2019-02-19T00:22:25.454Z,12.25
2019-02-19T00:24:52.819Z,12.75
2019-02-19T00:27:20.108Z,12.53
2019-02-19T00:29:47.403Z,13.05
2019-02-19T00:32:14.737Z,12.50
2019-02-19T00:34:42.115Z,11.78
2019-02-19T00:37:09.429Z,11.53
2019-02-19T00:39:36.724Z,11.90
2019-02-19T00:42:04.051Z,11.43
2019-02-19T00:44:31.441Z,11.78
2019-02-19T00:46:58.752Z,13.22
2019-02-19T00:49:26.047Z,12.05
2019-02-19T00:51:53.327Z,12.47
2019-02-19T00:54:20.727Z,11.73
2019-02-19T00:56:48.039Z,10.38
2019-02-19T00:59:15.332Z,11.68
2019-02-19T01:01:42.777Z,11.30
2019-02-19T01:04:10.112Z,10.78
2019-02-19T01:06:37.410Z,11.57
2019-02-19T01:11:58.467Z,12.00
2019-02-19T01:14:25.845Z,12.03
2019-02-19T01:16:53.201Z,11.85
2019-02-19T01:19:20.527Z,10.68
2019-02-19T01:22:07.093Z,11.00
2019-02-19T01:24:34.417Z,11.12
2019-02-19T01:27:01.711Z,10.70
2019-02-19T01:29:29.041Z,12.10
2019-02-19T01:31:56.361Z,11.00
2019-02-19T01:34:23.739Z,11.00
2019-02-19T01:36:51.029Z,11.12
2019-02-19T01:39:18.339Z,10.95
2019-02-19T01:41:45.629Z,10.90
2019-02-19T01:44:12.945Z,11.53
2019-02-19T01:46:40.341Z,12.03
2019-02-19T01:52:01.171Z,11.50
2019-02-19T01:54:28.465Z,12.45
2019-02-19T01:56:55.758Z,11.25
2019-02-19T01:59:23.054Z,11.00
2019-02-19T02:01:50.378Z,10.50
2019-02-19T02:04:17.769Z,11.48
2019-02-19T02:06:45.074Z,10.78
2019-02-19T02:09:12.381Z,12.70
2019-02-19T02:11:39.755Z,11.60
2019-02-19T02:14:07.045Z,12.65
2019-02-19T02:16:34.371Z,12.00
2019-02-19T02:19:01.665Z,11.40
2019-02-19T02:21:29.050Z,11.95
2019-02-19T02:23:56.341Z,12.58
2019-02-19T02:29:11.887Z,12.13
2019-02-19T02:31:39.188Z,12.43
2019-02-19T02:34:06.528Z,11.70
2019-02-19T02:36:33.898Z,12.10
2019-02-19T02:39:01.304Z,11.80
2019-02-19T02:41:28.665Z,13.20
2019-02-19T02:43:55.993Z,13.53
2019-02-19T02:46:23.376Z,12.70
2019-02-19T02:48:50.653Z,12.43
2019-02-19T02:51:18.001Z,13.35
2019-02-19T02:53:45.348Z,13.08
2019-02-19T02:56:12.666Z,13.58
2019-02-19T02:58:40.044Z,13.72
2019-02-19T03:01:07.436Z,13.72
2019-02-19T03:03:34.728Z,13.30
2019-02-19T03:08:36.470Z,12.28
2019-02-19T03:11:03.772Z,13.62
2019-02-19T03:13:31.056Z,13.20
2019-02-19T03:16:02.485Z,13.38
2019-02-19T03:18:27.356Z,13.60
2019-02-19T03:20:54.756Z,13.18
2019-02-19T03:23:22.106Z,14.80
2019-02-19T03:25:49.413Z,14.10
2019-02-19T03:28:16.704Z,13.78
2019-02-19T03:30:44.019Z,14.13
2019-02-19T03:33:11.325Z,14.87
2019-02-19T03:35:38.626Z,13.20
2019-02-19T03:38:05.931Z,14.40
2019-02-19T03:40:33.258Z,14.93
2019-02-19T03:43:00.639Z,14.78
2019-02-19T03:45:27.939Z,14.30
2019-02-19T03:47:55.296Z,15.72
2019-02-19T03:50:22.632Z,16.35
2019-02-19T03:52:49.906Z,15.38
2019-02-19T03:55:17.218Z,15.40
2019-02-19T03:57:44.611Z,14.70
2019-02-19T04:00:11.992Z,16.35
2019-02-19T04:02:39.282Z,15.88
2019-02-19T04:05:06.652Z,17.45
2019-02-19T04:07:33.958Z,17.10
2019-02-19T04:10:01.269Z,17.35
2019-02-19T04:12:28.695Z,17.45
2019-02-19T04:14:55.997Z,18.20
2019-02-19T04:17:23.314Z,18.60
2019-02-19T04:19:50.635Z,18.80
2019-02-19T04:22:17.945Z,19.75
2019-02-19T04:24:45.239Z,20.05
2019-02-19T04:27:12.571Z,19.60
2019-02-19T04:29:39.853Z,20.15
2019-02-19T04:32:07.191Z,20.05
2019-02-19T04:34:34.567Z,22.20
2019-02-19T04:37:01.949Z,20.77
2019-02-19T04:39:29.251Z,21.30
2019-02-19T04:41:56.634Z,21.87
2019-02-19T04:44:23.936Z,23.55
2019-02-19T04:46:51.253Z,23.15
2019-02-19T04:49:18.548Z,24.10
2019-02-19T04:51:45.931Z,24.15
2019-02-19T04:57:20.491Z,28.00
2019-02-19T04:59:47.859Z,25.68
2019-02-19T05:02:15.151Z,27.37
2019-02-19T05:04:42.440Z,29.10
2019-02-19T05:07:09.762Z,28.47
2019-02-19T05:09:37.059Z,30.43
2019-02-19T05:12:04.423Z,31.60
2019-02-19T05:14:31.751Z,29.70
2019-02-19T05:16:59.363Z,28.10
2019-02-19T05:19:26.723Z,28.15
2019-02-19T05:32:42.219Z,27.80
2019-02-19T05:35:09.597Z,28.10
2019-02-19T05:37:36.970Z,26.75
2019-02-19T05:48:25.291Z,27.65
2019-02-19T05:50:52.689Z,30.37
2019-02-19T05:53:20.046Z,32.08
2019-02-19T05:55:47.362Z,30.10
2019-02-19T05:58:14.668Z,33.50
2019-02-19T06:00:42.163Z,31.57
2019-02-19T06:03:09.625Z,30.12
2019-02-19T06:05:37.175Z,31.33
2019-02-19T06:08:04.553Z,30.23
2019-02-19T06:10:31.860Z,32.60
2019-02-19T06:12:59.178Z,29.00
2019-02-19T06:15:26.586Z,29.52
2019-02-19T06:17:53.966Z,28.95
2019-02-19T06:20:44.004Z,32.05
2019-02-19T06:22:50.368Z,27.35
2019-02-19T06:25:18.235Z,26.95
2019-02-19T06:27:45.614Z,27.37
2019-02-19T06:30:32.247Z,27.50
2019-02-19T06:32:59.542Z,28.12
2019-02-19T06:35:26.836Z,28.47
2019-02-19T06:37:54.150Z,28.25
2019-02-19T06:40:40.898Z,29.70
2019-02-19T06:43:08.306Z,29.85
2019-02-19T06:45:35.753Z,30.52
2019-02-19T06:48:03.057Z,30.72
2019-02-19T06:50:30.422Z,29.25
2019-02-19T06:52:57.724Z,28.05
2019-02-19T06:55:25.293Z,31.55
2019-02-19T06:57:52.588Z,49.55
2019-02-19T07:00:19.884Z,36.90
2019-02-19T07:07:56.098Z,30.90
2019-02-19T07:10:23.525Z,41.70
2019-02-19T07:12:50.804Z,29.60
2019-02-19T07:15:38.924Z,32.67
2019-02-19T07:18:06.324Z,32.73
2019-02-19T07:20:33.630Z,26.27
2019-02-19T07:23:00.926Z,62.83
2019-02-19T07:25:28.234Z,29.07
2019-02-19T07:27:55.530Z,35.08
2019-02-19T07:30:22.832Z,26.30
2019-02-19T07:32:50.118Z,23.85
2019-02-19T07:35:36.751Z,24.50
2019-02-19T07:38:04.031Z,25.25
2019-02-19T07:40:31.322Z,22.40
2019-02-19T07:42:58.637Z,20.85
2019-02-19T07:45:26.005Z,21.00
2019-02-19T07:47:53.320Z,19.82
2019-02-19T07:50:20.624Z,20.72
2019-02-19T07:52:47.990Z,18.50
2019-02-19T07:55:15.282Z,19.42
2019-02-19T07:57:42.977Z,18.37
2019-02-19T08:00:12.340Z,20.65
2019-02-19T08:02:39.700Z,18.12
2019-02-19T08:05:07.090Z,19.25
2019-02-19T08:07:34.511Z,18.20
2019-02-19T08:10:01.848Z,20.00
2019-02-19T08:12:29.187Z,16.77
2019-02-19T08:15:17.289Z,18.50
2019-02-19T08:17:44.589Z,19.20
2019-02-19T08:20:15.768Z,19.02
2019-02-19T08:22:40.897Z,16.25
2019-02-19T08:25:08.351Z,18.30
2019-02-19T08:27:35.641Z,19.65
2019-02-19T08:30:02.937Z,20.52
2019-02-19T08:32:30.227Z,20.62
2019-02-19T08:34:57.606Z,20.20
2019-02-19T08:37:24.907Z,20.45
2019-02-19T08:39:52.205Z,22.37
2019-02-19T08:42:19.506Z,22.67
2019-02-19T08:44:46.790Z,22.17
2019-02-19T08:47:14.395Z,21.90
2019-02-19T08:49:41.748Z,23.38
2019-02-19T08:52:09.053Z,23.40
2019-02-19T08:54:36.345Z,22.85
2019-02-19T08:57:03.657Z,21.87
2019-02-19T08:59:31.026Z,23.02
2019-02-19T09:01:58.313Z,21.65
2019-02-19T09:04:25.609Z,21.25
2019-02-19T09:06:52.983Z,22.45
2019-02-19T09:09:20.350Z,21.42
2019-02-19T09:11:47.653Z,20.95
2019-02-19T09:14:14.965Z,22.22
2019-02-19T09:16:42.255Z,21.12
2019-02-19T09:19:09.626Z,20.23
2019-02-19T09:21:37.037Z,20.10
2019-02-19T09:24:09.453Z,21.12
2019-02-19T09:26:52.691Z,19.85
2019-02-19T09:29:19.967Z,20.62
2019-02-19T09:31:47.288Z,21.95
2019-02-19T09:34:14.594Z,20.15
2019-02-19T09:36:41.945Z,21.95
2019-02-19T09:39:09.270Z,19.62
2019-02-19T09:41:36.570Z,21.40
2019-02-19T09:44:03.947Z,20.35
2019-02-19T09:46:31.245Z,21.42
2019-02-19T09:48:58.541Z,20.02
2019-02-19T09:51:25.841Z,21.35
2019-02-19T09:53:53.131Z,19.37
2019-02-19T09:56:20.417Z,20.57
2019-02-19T09:58:47.738Z,19.23
2019-02-19T10:01:15.060Z,19.55
2019-02-19T10:03:42.348Z,20.27
2019-02-19T10:06:09.656Z,19.37
2019-02-19T10:08:36.958Z,21.45
2019-02-19T10:11:04.259Z,20.23
2019-02-19T10:13:31.544Z,18.87
2019-02-19T10:15:58.846Z,18.20
2019-02-19T10:18:26.142Z,18.95
2019-02-19T10:20:53.452Z,19.30
2019-02-19T10:23:20.736Z,18.20
2019-02-19T10:25:48.038Z,20.17
2019-02-19T10:28:15.344Z,19.73
2019-02-19T10:30:42.690Z,19.10
2019-02-19T10:33:10.029Z,18.57
2019-02-19T10:35:37.408Z,17.83
2019-02-19T10:38:04.789Z,17.80
2019-02-19T10:40:32.099Z,17.53
2019-02-19T10:43:01.524Z,19.70
2019-02-19T10:45:28.868Z,19.47
2019-02-19T10:47:56.211Z,17.83
2019-02-19T10:50:23.510Z,16.73
2019-02-19T10:52:51.765Z,17.93
2019-02-19T10:55:19.136Z,19.00
2019-02-19T10:57:46.422Z,17.70
2019-02-19T11:00:33.050Z,18.70
2019-02-19T11:03:00.340Z,17.40
2019-02-19T11:05:27.728Z,18.77
2019-02-19T11:08:14.464Z,17.20
2019-02-19T11:10:41.787Z,16.05
2019-02-19T11:13:10.164Z,17.40
2019-02-19T11:15:37.523Z,15.72
2019-02-19T11:18:04.884Z,17.35
2019-02-19T11:20:32.212Z,15.70
2019-02-19T11:22:59.575Z,16.25
2019-02-19T11:25:26.856Z,17.30
2019-02-19T11:27:54.232Z,14.90
2019-02-19T11:30:21.538Z,15.43
2019-02-19T11:32:48.884Z,14.40
2019-02-19T11:35:16.227Z,14.15
2019-02-19T11:37:43.641Z,14.55
2019-02-19T11:43:18.278Z,12.15
2019-02-19T11:45:45.588Z,13.98
2019-02-19T11:48:12.925Z,13.72
2019-02-19T11:50:40.256Z,11.57
2019-02-19T11:53:07.647Z,11.50
2019-02-19T11:55:34.975Z,11.45
2019-02-19T11:58:02.271Z,10.53
2019-02-19T12:00:49.033Z,11.65
2019-02-19T12:03:16.410Z,10.60
2019-02-19T12:05:43.807Z,10.50
2019-02-19T12:08:11.458Z,10.15
2019-02-19T12:10:38.813Z,10.65
2019-02-19T12:13:06.092Z,10.75
2019-02-19T12:15:35.476Z,9.48
2019-02-19T12:18:02.491Z,10.15
2019-02-19T12:20:29.806Z,9.73
2019-02-19T12:22:57.200Z,9.88
2019-02-19T12:25:24.579Z,9.30
2019-02-19T12:27:51.871Z,10.13
2019-02-19T12:33:13.100Z,10.32
2019-02-19T12:35:40.481Z,10.08
2019-02-19T12:38:07.779Z,8.95
2019-02-19T12:40:35.081Z,9.50
2019-02-19T12:43:02.481Z,8.88
2019-02-19T12:45:29.851Z,8.90
2019-02-19T12:47:58.121Z,9.08
2019-02-19T12:50:25.524Z,8.60
2019-02-19T12:52:52.881Z,8.80
2019-02-19T12:55:20.257Z,9.23
2019-02-19T12:57:47.579Z,8.33
2019-02-19T13:00:34.322Z,8.65
2019-02-19T13:03:01.689Z,8.48
2019-02-19T13:05:48.331Z,8.80
2019-02-19T13:08:15.632Z,9.38
2019-02-19T13:10:42.916Z,8.73
2019-02-19T13:13:10.229Z,9.10
2019-02-19T13:15:37.535Z,7.78
2019-02-19T13:18:04.922Z,7.60
2019-02-19T13:20:32.353Z,8.05
2019-02-19T13:22:59.702Z,7.62
2019-02-19T13:25:26.975Z,8.28
2019-02-19T13:27:54.282Z,7.33
2019-02-19T13:30:21.895Z,7.83
2019-02-19T13:32:49.271Z,7.62
2019-02-19T13:35:16.572Z,7.80
2019-02-19T13:37:43.866Z,8.95
2019-02-19T13:40:31.980Z,7.92
2019-02-19T13:42:59.334Z,7.85
2019-02-19T13:45:26.631Z,7.87
2019-02-19T13:47:53.919Z,7.72
2019-02-19T13:50:42.036Z,7.90
2019-02-19T13:56:02.850Z,7.00
2019-02-19T13:58:30.144Z,7.15
2019-02-19T14:00:57.453Z,7.00
2019-02-19T14:03:24.736Z,7.40
2019-02-19T14:05:52.040Z,6.85
2019-02-19T14:08:19.339Z,6.90
2019-02-19T14:10:46.692Z,6.90
2019-02-19T14:13:14.025Z,6.55
2019-02-19T14:19:08.123Z,5.95
2019-02-19T14:21:54.679Z,6.12
2019-02-19T14:24:41.255Z,5.50
2019-02-19T14:27:27.888Z,5.50
2019-02-19T14:35:24.971Z,7.58
2019-02-19T14:40:59.642Z,6.47
2019-02-19T14:46:53.488Z,6.55
2019-02-19T14:49:47.142Z,5.97
2019-02-19T14:52:28.398Z,7.00
2019-02-19T14:55:14.952Z,6.17
2019-02-19T15:00:39.518Z,6.55
2019-02-19T15:03:26.160Z,6.67
2019-02-19T15:06:12.728Z,7.00
2019-02-19T15:08:59.629Z,7.30
2019-02-19T15:14:34.358Z,7.33
2019-02-19T15:17:20.922Z,7.58
2019-02-19T15:20:07.605Z,7.00
2019-02-19T15:22:54.238Z,8.55
2019-02-19T15:25:40.803Z,8.08
2019-02-19T15:33:50.233Z,7.30
2019-02-19T15:39:37.779Z,7.00
2019-02-19T15:42:26.008Z,7.50
2019-02-19T15:48:01.452Z,7.33
2019-02-19T15:50:48.099Z,7.80
2019-02-19T15:53:35.160Z,7.47
2019-02-19T15:56:21.735Z,6.85
2019-02-19T15:59:08.317Z,7.75
2019-02-19T16:01:40.297Z,7.20
2019-02-19T16:04:09.264Z,7.67
2019-02-19T16:06:56.944Z,7.72
2019-02-19T16:09:43.794Z,7.10
2019-02-19T16:18:00.809Z,7.50
2019-02-19T16:20:47.732Z,6.92
2019-02-19T16:26:22.783Z,8.00
2019-02-19T16:29:09.731Z,7.87
2019-02-19T16:31:56.585Z,7.00
2019-02-19T16:34:43.318Z,7.80
2019-02-19T16:37:29.989Z,9.05
2019-02-19T16:40:16.928Z,8.50
2019-02-19T16:43:03.572Z,8.33
2019-02-19T16:45:50.285Z,8.55
2019-02-19T16:48:36.903Z,9.23
2019-02-19T16:51:23.731Z,9.53
2019-02-19T16:54:10.569Z,8.95
2019-02-19T16:56:57.175Z,9.63
2019-02-19T16:59:43.831Z,10.08
2019-02-19T17:05:18.516Z,10.03
2019-02-19T17:08:05.181Z,12.30
2019-02-19T17:10:51.865Z,9.63
2019-02-19T17:13:38.464Z,9.45
2019-02-19T17:16:34.896Z,9.88
2019-02-19T17:24:44.273Z,6.20
2019-02-19T17:27:30.845Z,4.67
2019-02-19T17:30:17.425Z,4.58
2019-02-19T17:33:04.066Z,5.75
2019-02-19T17:35:52.607Z,5.55
2019-02-19T17:38:39.594Z,5.12
2019-02-19T17:41:26.304Z,6.03
2019-02-19T17:49:36.395Z,4.72
2019-02-19T17:52:23.170Z,5.70
2019-02-19T17:57:58.033Z,4.30
2019-02-19T18:00:44.739Z,3.10
2019-02-19T18:03:50.741Z,3.83
2019-02-19T18:06:37.620Z,3.90
2019-02-19T18:14:37.283Z,4.30
2019-02-19T18:17:23.991Z,3.98
2019-02-19T18:19:51.282Z,3.47
2019-02-19T18:22:18.643Z,4.35
2019-02-19T18:24:45.930Z,4.70
2019-02-19T18:30:01.419Z,4.40
2019-02-19T18:32:28.791Z,4.58
2019-02-19T18:34:56.600Z,4.65
2019-02-19T18:37:24.030Z,5.10
2019-02-19T18:39:51.572Z,5.70
2019-02-19T18:42:19.020Z,5.45
2019-02-19T18:44:46.575Z,6.12
2019-02-19T18:47:13.922Z,5.65
2019-02-19T18:49:42.288Z,5.65
2019-02-19T18:52:09.656Z,5.30
2019-02-19T18:54:36.968Z,5.87
2019-02-19T18:57:04.378Z,6.08
2019-02-19T18:59:31.843Z,5.53
2019-02-19T19:01:59.257Z,5.42
2019-02-19T19:04:26.700Z,5.62
2019-02-19T19:06:54.002Z,6.47
2019-02-19T19:09:21.385Z,5.40
2019-02-19T19:11:48.824Z,6.17
2019-02-19T19:14:16.221Z,6.33
2019-02-19T19:16:43.582Z,6.95
2019-02-19T19:19:10.905Z,6.65
2019-02-19T19:21:38.223Z,5.83
2019-02-19T19:24:05.622Z,7.75
2019-02-19T19:26:33.061Z,6.72
2019-02-19T19:29:00.545Z,5.67
2019-02-19T19:31:33.343Z,6.47
2019-02-19T19:33:57.791Z,6.45
2019-02-19T19:36:25.364Z,5.50
2019-02-19T19:38:52.871Z,6.25
2019-02-19T19:43:53.848Z,6.08
2019-02-19T19:46:21.343Z,6.15
2019-02-19T19:48:48.704Z,6.33
2019-02-19T19:51:17.324Z,6.42
2019-02-19T19:56:20.594Z,7.10
2019-02-19T19:58:47.917Z,5.78
2019-02-19T20:01:15.574Z,6.70
2019-02-19T20:03:42.904Z,6.72
2019-02-19T20:06:10.378Z,7.97
2019-02-19T20:08:39.759Z,6.22
2019-02-19T20:11:07.119Z,6.97
2019-02-19T20:13:34.535Z,7.87
2019-02-19T20:16:01.931Z,7.97
2019-02-19T20:18:29.265Z,8.35
2019-02-19T20:20:57.116Z,7.90
2019-02-19T20:23:25.245Z,7.90
2019-02-19T20:25:52.602Z,8.08
2019-02-19T20:28:19.927Z,8.05
2019-02-19T20:30:47.311Z,9.30
2019-02-19T20:33:15.186Z,8.60
2019-02-19T20:35:42.692Z,7.72
2019-02-19T20:38:10.112Z,8.43
2019-02-19T20:40:37.484Z,8.65
2019-02-19T20:43:04.954Z,9.20
2019-02-19T20:45:32.390Z,8.73
2019-02-19T20:47:59.994Z,8.85
2019-02-19T20:50:29.145Z,8.65
2019-02-19T20:52:56.608Z,8.80
2019-02-19T20:55:24.114Z,8.00
2019-02-19T20:57:52.702Z,8.25
2019-02-19T21:00:19.994Z,9.70
2019-02-19T21:02:47.347Z,9.28
2019-02-19T21:05:14.682Z,9.10
2019-02-19T21:07:42.075Z,8.23
2019-02-19T21:13:16.639Z,9.53
2019-02-19T21:15:44.006Z,9.48
2019-02-19T21:18:11.287Z,9.35
2019-02-19T21:20:38.687Z,10.10
2019-02-19T21:23:06.049Z,9.80
2019-02-19T21:25:33.352Z,10.45
2019-02-19T21:28:00.678Z,9.25
2019-02-19T21:30:28.060Z,10.58
2019-02-19T21:32:55.352Z,9.80
2019-02-19T21:35:22.725Z,9.80
2019-02-19T21:37:50.019Z,9.93
2019-02-19T21:40:17.297Z,9.43
2019-02-19T21:42:44.643Z,10.58
2019-02-19T21:48:04.613Z,9.28
2019-02-19T21:50:31.986Z,10.82
2019-02-19T21:52:59.307Z,10.28
2019-02-19T21:55:26.758Z,10.53
2019-02-19T21:57:54.097Z,9.55
2019-02-19T22:00:22.023Z,11.25
2019-02-19T22:02:49.411Z,9.75
2019-02-19T22:05:16.831Z,10.58
2019-02-19T22:07:44.191Z,11.05
2019-02-19T22:13:08.916Z,10.95
2019-02-19T22:15:36.212Z,9.28
2019-02-19T22:18:03.668Z,9.43
2019-02-19T22:20:41.539Z,10.78
2019-02-19T22:23:08.896Z,9.80
2019-02-19T22:25:36.182Z,10.70
2019-02-19T22:28:03.774Z,8.98
2019-02-19T22:30:32.383Z,9.90
2019-02-19T22:32:59.763Z,9.60
2019-02-19T22:35:28.246Z,11.08
2019-02-19T22:37:55.666Z,10.25
2019-02-19T22:40:22.970Z,10.00
2019-02-19T22:42:50.272Z,9.70
2019-02-19T22:45:17.601Z,10.20
2019-02-19T22:47:52.975Z,11.28
2019-02-19T22:50:13.980Z,9.60
2019-02-19T22:52:41.327Z,9.33
2019-02-19T22:55:29.515Z,11.08
2019-02-19T22:57:56.942Z,10.13
2019-02-19T23:03:23.432Z,7.90
2019-02-19T23:05:50.820Z,10.70
2019-02-19T23:08:18.266Z,7.85
2019-02-19T23:10:46.750Z,7.12
2019-02-19T23:13:14.728Z,10.65
2019-02-19T23:15:42.048Z,8.68
2019-02-19T23:18:12.685Z,8.20
2019-02-19T23:28:38.656Z,8.30
2019-02-19T23:31:06.037Z,6.78
2019-02-19T23:33:33.350Z,6.92
2019-02-19T23:36:19.917Z,9.23
2019-02-19T23:38:47.300Z,7.55
2019-02-19T23:41:14.610Z,9.10
2019-02-19T23:43:41.921Z,7.40
2019-02-19T23:46:09.246Z,8.43
2019-02-19T23:48:36.618Z,8.20
2019-02-19T23:51:03.996Z,7.87
2019-02-19T23:53:31.320Z,9.10
2019-02-19T23:55:58.624Z,8.00
2019-02-19T23:58:26.027Z,7.60
